sensor_id;sensor_type;location;lat;lon;timestamp;temperature;humidity
4910;DHT22;2470;49.868;8.660;2023-06-04T00:00:27;18.20;44.40
4910;DHT22;2470;49.868;8.660;2023-06-04T00:02:53;18.10;44.40
4910;DHT22;2470;49.868;8.660;2023-06-04T00:05:18;18.10;44.40
4910;DHT22;2470;49.868;8.660;2023-06-04T00:07:43;18.10;44.30
4910;DHT22;2470;49.868;8.660;2023-06-04T00:10:09;18.10;44.20
4910;DHT22;2470;49.868;8.660;2023-06-04T00:12:35;18.10;44.20
4910;DHT22;2470;49.868;8.660;2023-06-04T00:15:01;18.00;44.10
4910;DHT22;2470;49.868;8.660;2023-06-04T00:17:27;18.00;44.10
4910;DHT22;2470;49.868;8.660;2023-06-04T00:19:52;18.00;44.30
4910;DHT22;2470;49.868;8.660;2023-06-04T00:22:18;17.90;44.10
4910;DHT22;2470;49.868;8.660;2023-06-04T00:24:43;17.90;44.20
4910;DHT22;2470;49.868;8.660;2023-06-04T00:27:09;17.90;44.20
4910;DHT22;2470;49.868;8.660;2023-06-04T00:29:35;17.90;44.10
4910;DHT22;2470;49.868;8.660;2023-06-04T00:32:01;17.90;44.20
4910;DHT22;2470;49.868;8.660;2023-06-04T00:34:27;17.80;44.20
4910;DHT22;2470;49.868;8.660;2023-06-04T00:36:52;17.80;44.10
4910;DHT22;2470;49.868;8.660;2023-06-04T00:39:18;17.80;44.10
4910;DHT22;2470;49.868;8.660;2023-06-04T00:41:43;17.70;44.10
4910;DHT22;2470;49.868;8.660;2023-06-04T00:44:09;17.70;44.10
4910;DHT22;2470;49.868;8.660;2023-06-04T00:46:37;17.60;44.10
4910;DHT22;2470;49.868;8.660;2023-06-04T00:49:03;17.60;44.10
4910;DHT22;2470;49.868;8.660;2023-06-04T00:51:30;17.60;43.90
4910;DHT22;2470;49.868;8.660;2023-06-04T00:53:56;17.60;44.00
4910;DHT22;2470;49.868;8.660;2023-06-04T00:56:21;17.60;44.30
4910;DHT22;2470;49.868;8.660;2023-06-04T00:58:47;17.60;44.40
4910;DHT22;2470;49.868;8.660;2023-06-04T01:03:51;17.60;44.30
4910;DHT22;2470;49.868;8.660;2023-06-04T01:06:25;17.60;44.40
4910;DHT22;2470;49.868;8.660;2023-06-04T01:08:53;17.50;44.40
4910;DHT22;2470;49.868;8.660;2023-06-04T01:11:51;17.50;44.50
4910;DHT22;2470;49.868;8.660;2023-06-04T01:14:16;17.50;44.70
4910;DHT22;2470;49.868;8.660;2023-06-04T01:16:56;17.40;44.50
4910;DHT22;2470;49.868;8.660;2023-06-04T01:22:05;17.40;44.70
4910;DHT22;2470;49.868;8.660;2023-06-04T01:24:37;17.30;44.60
4910;DHT22;2470;49.868;8.660;2023-06-04T01:27:05;17.30;44.70
4910;DHT22;2470;49.868;8.660;2023-06-04T01:29:31;17.30;44.90
4910;DHT22;2470;49.868;8.660;2023-06-04T01:31:57;17.30;45.00
4910;DHT22;2470;49.868;8.660;2023-06-04T01:34:23;17.20;44.80
4910;DHT22;2470;49.868;8.660;2023-06-04T01:36:49;17.20;44.90
4910;DHT22;2470;49.868;8.660;2023-06-04T01:39:15;17.20;44.90
4910;DHT22;2470;49.868;8.660;2023-06-04T01:41:41;17.20;44.90
4910;DHT22;2470;49.868;8.660;2023-06-04T01:44:06;17.20;44.90
4910;DHT22;2470;49.868;8.660;2023-06-04T01:46:32;17.20;44.70
4910;DHT22;2470;49.868;8.660;2023-06-04T01:48:57;17.10;44.80
4910;DHT22;2470;49.868;8.660;2023-06-04T01:51:23;17.10;44.70
4910;DHT22;2470;49.868;8.660;2023-06-04T01:53:48;17.10;44.80
4910;DHT22;2470;49.868;8.660;2023-06-04T01:56:14;17.10;44.80
4910;DHT22;2470;49.868;8.660;2023-06-04T01:58:39;17.00;44.80
4910;DHT22;2470;49.868;8.660;2023-06-04T02:01:05;17.00;44.80
4910;DHT22;2470;49.868;8.660;2023-06-04T02:03:32;17.00;44.80
4910;DHT22;2470;49.868;8.660;2023-06-04T02:06:05;16.90;44.70
4910;DHT22;2470;49.868;8.660;2023-06-04T02:08:33;16.90;44.80
4910;DHT22;2470;49.868;8.660;2023-06-04T02:10:59;16.90;44.70
4910;DHT22;2470;49.868;8.660;2023-06-04T02:13:25;16.80;44.50
4910;DHT22;2470;49.868;8.660;2023-06-04T02:15:50;16.80;44.50
4910;DHT22;2470;49.868;8.660;2023-06-04T02:18:18;16.80;44.60
4910;DHT22;2470;49.868;8.660;2023-06-04T02:20:46;16.70;44.70
4910;DHT22;2470;49.868;8.660;2023-06-04T02:23:12;16.70;44.70
4910;DHT22;2470;49.868;8.660;2023-06-04T02:25:38;16.70;44.50
4910;DHT22;2470;49.868;8.660;2023-06-04T02:28:03;16.60;44.60
4910;DHT22;2470;49.868;8.660;2023-06-04T02:30:29;16.60;44.80
4910;DHT22;2470;49.868;8.660;2023-06-04T02:32:54;16.60;44.80
4910;DHT22;2470;49.868;8.660;2023-06-04T02:35:23;16.50;44.90
4910;DHT22;2470;49.868;8.660;2023-06-04T02:37:49;16.50;44.90
4910;DHT22;2470;49.868;8.660;2023-06-04T02:40:15;16.50;45.00
4910;DHT22;2470;49.868;8.660;2023-06-04T02:42:40;16.50;45.10
4910;DHT22;2470;49.868;8.660;2023-06-04T02:45:06;16.40;45.10
4910;DHT22;2470;49.868;8.660;2023-06-04T02:47:32;16.40;45.80
4910;DHT22;2470;49.868;8.660;2023-06-04T02:49:57;16.40;45.20
4910;DHT22;2470;49.868;8.660;2023-06-04T02:52:23;16.40;45.20
4910;DHT22;2470;49.868;8.660;2023-06-04T02:54:50;16.40;45.30
4910;DHT22;2470;49.868;8.660;2023-06-04T02:57:16;16.30;45.30
4910;DHT22;2470;49.868;8.660;2023-06-04T02:59:41;16.30;45.50
4910;DHT22;2470;49.868;8.660;2023-06-04T03:02:07;16.30;45.50
4910;DHT22;2470;49.868;8.660;2023-06-04T03:04:32;16.30;45.50
4910;DHT22;2470;49.868;8.660;2023-06-04T03:07:03;16.30;45.40
4910;DHT22;2470;49.868;8.660;2023-06-04T03:09:30;16.20;45.30
4910;DHT22;2470;49.868;8.660;2023-06-04T03:12:03;16.20;45.40
4910;DHT22;2470;49.868;8.660;2023-06-04T03:14:29;16.20;45.40
4910;DHT22;2470;49.868;8.660;2023-06-04T03:17:01;16.20;45.60
4910;DHT22;2470;49.868;8.660;2023-06-04T03:19:39;16.10;45.60
4910;DHT22;2470;49.868;8.660;2023-06-04T03:22:06;16.10;45.60
4910;DHT22;2470;49.868;8.660;2023-06-04T03:24:36;16.10;45.60
4910;DHT22;2470;49.868;8.660;2023-06-04T03:27:03;16.00;45.50
4910;DHT22;2470;49.868;8.660;2023-06-04T03:29:29;16.00;45.60
4910;DHT22;2470;49.868;8.660;2023-06-04T03:31:56;16.00;45.70
4910;DHT22;2470;49.868;8.660;2023-06-04T03:34:21;16.00;45.60
4910;DHT22;2470;49.868;8.660;2023-06-04T03:36:53;16.00;45.60
4910;DHT22;2470;49.868;8.660;2023-06-04T03:39:19;16.00;45.70
4910;DHT22;2470;49.868;8.660;2023-06-04T03:41:45;16.00;45.80
4910;DHT22;2470;49.868;8.660;2023-06-04T03:44:13;16.00;45.70
4910;DHT22;2470;49.868;8.660;2023-06-04T03:46:39;16.00;46.30
4910;DHT22;2470;49.868;8.660;2023-06-04T03:49:04;16.10;45.70
4910;DHT22;2470;49.868;8.660;2023-06-04T03:51:30;16.10;45.70
4910;DHT22;2470;49.868;8.660;2023-06-04T03:53:57;16.10;45.80
4910;DHT22;2470;49.868;8.660;2023-06-04T03:56:23;16.10;45.80
4910;DHT22;2470;49.868;8.660;2023-06-04T03:58:49;16.10;45.90
4910;DHT22;2470;49.868;8.660;2023-06-04T04:01:15;16.10;46.50
4910;DHT22;2470;49.868;8.660;2023-06-04T04:03:40;16.10;45.90
4910;DHT22;2470;49.868;8.660;2023-06-04T04:06:09;16.10;45.80
4910;DHT22;2470;49.868;8.660;2023-06-04T04:08:36;16.10;45.80
4910;DHT22;2470;49.868;8.660;2023-06-04T04:11:02;16.20;45.90
4910;DHT22;2470;49.868;8.660;2023-06-04T04:13:28;16.20;46.00
4910;DHT22;2470;49.868;8.660;2023-06-04T04:15:53;16.20;45.90
4910;DHT22;2470;49.868;8.660;2023-06-04T04:18:22;16.20;46.00
4910;DHT22;2470;49.868;8.660;2023-06-04T04:20:47;16.30;46.20
4910;DHT22;2470;49.868;8.660;2023-06-04T04:23:13;16.30;46.30
4910;DHT22;2470;49.868;8.660;2023-06-04T04:25:39;16.30;46.20
4910;DHT22;2470;49.868;8.660;2023-06-04T04:28:05;16.30;46.10
4910;DHT22;2470;49.868;8.660;2023-06-04T04:30:34;16.30;46.00
4910;DHT22;2470;49.868;8.660;2023-06-04T04:33:03;16.30;46.00
4910;DHT22;2470;49.868;8.660;2023-06-04T04:35:31;16.30;46.20
4910;DHT22;2470;49.868;8.660;2023-06-04T04:38:01;16.40;46.40
4910;DHT22;2470;49.868;8.660;2023-06-04T04:40:30;16.40;46.40
4910;DHT22;2470;49.868;8.660;2023-06-04T04:42:57;16.50;46.40
4910;DHT22;2470;49.868;8.660;2023-06-04T04:45:23;16.50;46.30
4910;DHT22;2470;49.868;8.660;2023-06-04T04:47:48;16.50;46.40
4910;DHT22;2470;49.868;8.660;2023-06-04T04:50:16;16.50;46.40
4910;DHT22;2470;49.868;8.660;2023-06-04T04:52:42;16.60;46.50
4910;DHT22;2470;49.868;8.660;2023-06-04T04:55:08;16.60;46.40
4910;DHT22;2470;49.868;8.660;2023-06-04T04:57:34;16.60;46.50
4910;DHT22;2470;49.868;8.660;2023-06-04T04:59:59;16.60;46.50
4910;DHT22;2470;49.868;8.660;2023-06-04T05:02:25;16.60;46.60
4910;DHT22;2470;49.868;8.660;2023-06-04T05:04:50;16.60;46.70
4910;DHT22;2470;49.868;8.660;2023-06-04T05:07:16;16.60;46.80
4910;DHT22;2470;49.868;8.660;2023-06-04T05:09:41;16.60;47.00
4910;DHT22;2470;49.868;8.660;2023-06-04T05:12:07;16.70;47.10
4910;DHT22;2470;49.868;8.660;2023-06-04T05:14:33;16.70;47.10
4910;DHT22;2470;49.868;8.660;2023-06-04T05:17:01;16.80;47.20
4910;DHT22;2470;49.868;8.660;2023-06-04T05:19:28;16.70;47.10
4910;DHT22;2470;49.868;8.660;2023-06-04T05:21:53;16.70;47.30
4910;DHT22;2470;49.868;8.660;2023-06-04T05:24:19;16.80;47.10
4910;DHT22;2470;49.868;8.660;2023-06-04T05:26:45;16.90;47.30
4910;DHT22;2470;49.868;8.660;2023-06-04T05:29:10;17.00;47.30
4910;DHT22;2470;49.868;8.660;2023-06-04T05:31:36;17.00;47.00
4910;DHT22;2470;49.868;8.660;2023-06-04T05:34:02;17.10;46.90
4910;DHT22;2470;49.868;8.660;2023-06-04T05:36:29;17.20;47.20
4910;DHT22;2470;49.868;8.660;2023-06-04T05:38:55;17.20;47.20
4910;DHT22;2470;49.868;8.660;2023-06-04T05:41:23;17.20;47.30
4910;DHT22;2470;49.868;8.660;2023-06-04T05:43:49;17.40;47.40
4910;DHT22;2470;49.868;8.660;2023-06-04T05:46:15;17.40;47.20
4910;DHT22;2470;49.868;8.660;2023-06-04T05:48:40;17.40;47.10
4910;DHT22;2470;49.868;8.660;2023-06-04T05:51:06;17.40;46.80
4910;DHT22;2470;49.868;8.660;2023-06-04T05:53:33;17.50;46.80
4910;DHT22;2470;49.868;8.660;2023-06-04T05:55:58;17.50;46.80
4910;DHT22;2470;49.868;8.660;2023-06-04T05:58:24;17.50;46.70
4910;DHT22;2470;49.868;8.660;2023-06-04T06:00:50;17.60;46.60
4910;DHT22;2470;49.868;8.660;2023-06-04T06:03:16;17.50;46.40
4910;DHT22;2470;49.868;8.660;2023-06-04T06:05:45;17.60;46.10
4910;DHT22;2470;49.868;8.660;2023-06-04T06:08:10;17.60;46.10
4910;DHT22;2470;49.868;8.660;2023-06-04T06:10:36;17.70;46.30
4910;DHT22;2470;49.868;8.660;2023-06-04T06:13:02;17.70;46.50
4910;DHT22;2470;49.868;8.660;2023-06-04T06:15:27;17.70;46.60
4910;DHT22;2470;49.868;8.660;2023-06-04T06:17:54;17.70;46.40
4910;DHT22;2470;49.868;8.660;2023-06-04T06:20:19;17.80;46.90
4910;DHT22;2470;49.868;8.660;2023-06-04T06:22:46;17.90;46.90
4910;DHT22;2470;49.868;8.660;2023-06-04T06:25:12;18.00;46.90
4910;DHT22;2470;49.868;8.660;2023-06-04T06:27:41;18.00;46.70
4910;DHT22;2470;49.868;8.660;2023-06-04T06:30:08;18.10;46.80
4910;DHT22;2470;49.868;8.660;2023-06-04T06:32:34;18.20;46.10
4910;DHT22;2470;49.868;8.660;2023-06-04T06:35:00;18.30;45.80
4910;DHT22;2470;49.868;8.660;2023-06-04T06:37:26;18.40;45.60
4910;DHT22;2470;49.868;8.660;2023-06-04T06:39:51;18.50;45.50
4910;DHT22;2470;49.868;8.660;2023-06-04T06:42:17;18.60;45.40
4910;DHT22;2470;49.868;8.660;2023-06-04T06:44:44;18.70;45.00
4910;DHT22;2470;49.868;8.660;2023-06-04T06:47:09;18.70;44.30
4910;DHT22;2470;49.868;8.660;2023-06-04T06:49:41;18.70;44.10
4910;DHT22;2470;49.868;8.660;2023-06-04T06:52:07;18.80;44.70
4910;DHT22;2470;49.868;8.660;2023-06-04T06:54:32;18.80;44.80
4910;DHT22;2470;49.868;8.660;2023-06-04T06:56:58;18.90;44.70
4910;DHT22;2470;49.868;8.660;2023-06-04T06:59:24;19.00;44.00
4910;DHT22;2470;49.868;8.660;2023-06-04T07:01:50;19.10;43.60
4910;DHT22;2470;49.868;8.660;2023-06-04T07:04:16;19.10;43.20
4910;DHT22;2470;49.868;8.660;2023-06-04T07:06:42;19.20;43.10
4910;DHT22;2470;49.868;8.660;2023-06-04T07:09:08;19.30;42.80
4910;DHT22;2470;49.868;8.660;2023-06-04T07:11:34;19.30;42.50
4910;DHT22;2470;49.868;8.660;2023-06-04T07:14:00;19.40;42.30
4910;DHT22;2470;49.868;8.660;2023-06-04T07:16:28;19.50;41.80
4910;DHT22;2470;49.868;8.660;2023-06-04T07:18:56;19.60;42.00
4910;DHT22;2470;49.868;8.660;2023-06-04T07:21:22;19.70;41.80
4910;DHT22;2470;49.868;8.660;2023-06-04T07:23:49;19.70;41.70
4910;DHT22;2470;49.868;8.660;2023-06-04T07:26:16;19.70;41.80
4910;DHT22;2470;49.868;8.660;2023-06-04T07:28:43;19.80;41.50
4910;DHT22;2470;49.868;8.660;2023-06-04T07:31:09;19.80;41.50
4910;DHT22;2470;49.868;8.660;2023-06-04T07:33:34;19.90;41.80
4910;DHT22;2470;49.868;8.660;2023-06-04T07:36:07;19.90;41.10
4910;DHT22;2470;49.868;8.660;2023-06-04T07:38:33;19.90;41.00
4910;DHT22;2470;49.868;8.660;2023-06-04T07:40:58;19.90;41.30
4910;DHT22;2470;49.868;8.660;2023-06-04T07:43:24;19.90;41.90
4910;DHT22;2470;49.868;8.660;2023-06-04T07:45:49;19.80;42.00
4910;DHT22;2470;49.868;8.660;2023-06-04T07:48:15;19.80;42.00
4910;DHT22;2470;49.868;8.660;2023-06-04T07:50:41;19.90;42.10
4910;DHT22;2470;49.868;8.660;2023-06-04T07:53:06;19.90;42.00
4910;DHT22;2470;49.868;8.660;2023-06-04T07:55:32;20.00;42.30
4910;DHT22;2470;49.868;8.660;2023-06-04T07:57:58;20.10;42.50
4910;DHT22;2470;49.868;8.660;2023-06-04T08:00:24;20.20;42.30
4910;DHT22;2470;49.868;8.660;2023-06-04T08:02:49;20.30;42.30
4910;DHT22;2470;49.868;8.660;2023-06-04T08:05:16;20.30;42.10
4910;DHT22;2470;49.868;8.660;2023-06-04T08:07:41;20.40;42.50
4910;DHT22;2470;49.868;8.660;2023-06-04T08:10:07;20.50;41.70
4910;DHT22;2470;49.868;8.660;2023-06-04T08:12:33;20.50;41.10
4910;DHT22;2470;49.868;8.660;2023-06-04T08:14:58;20.60;41.20
4910;DHT22;2470;49.868;8.660;2023-06-04T08:17:24;20.60;41.10
4910;DHT22;2470;49.868;8.660;2023-06-04T08:19:50;20.60;41.20
4910;DHT22;2470;49.868;8.660;2023-06-04T08:22:15;20.70;41.20
4910;DHT22;2470;49.868;8.660;2023-06-04T08:24:41;20.70;41.40
4910;DHT22;2470;49.868;8.660;2023-06-04T08:27:06;20.70;41.70
4910;DHT22;2470;49.868;8.660;2023-06-04T08:29:34;20.70;41.40
4910;DHT22;2470;49.868;8.660;2023-06-04T08:32:01;20.70;41.50
4910;DHT22;2470;49.868;8.660;2023-06-04T08:34:27;20.80;41.80
4910;DHT22;2470;49.868;8.660;2023-06-04T08:36:52;20.90;42.10
4910;DHT22;2470;49.868;8.660;2023-06-04T08:39:17;21.00;42.20
4910;DHT22;2470;49.868;8.660;2023-06-04T08:41:45;21.10;42.10
4910;DHT22;2470;49.868;8.660;2023-06-04T08:44:11;21.10;41.80
4910;DHT22;2470;49.868;8.660;2023-06-04T08:46:40;21.20;41.70
4910;DHT22;2470;49.868;8.660;2023-06-04T08:49:06;21.20;41.80
4910;DHT22;2470;49.868;8.660;2023-06-04T08:51:34;21.30;41.40
4910;DHT22;2470;49.868;8.660;2023-06-04T08:54:00;21.40;41.60
4910;DHT22;2470;49.868;8.660;2023-06-04T08:56:26;21.40;41.40
4910;DHT22;2470;49.868;8.660;2023-06-04T08:58:56;21.50;41.70
4910;DHT22;2470;49.868;8.660;2023-06-04T09:01:25;21.50;41.60
4910;DHT22;2470;49.868;8.660;2023-06-04T09:03:50;21.50;41.50
4910;DHT22;2470;49.868;8.660;2023-06-04T09:06:16;21.60;41.30
4910;DHT22;2470;49.868;8.660;2023-06-04T09:08:43;21.80;41.30
4910;DHT22;2470;49.868;8.660;2023-06-04T09:11:12;21.80;41.30
4910;DHT22;2470;49.868;8.660;2023-06-04T09:13:38;21.90;40.90
4910;DHT22;2470;49.868;8.660;2023-06-04T09:16:05;22.00;40.50
4910;DHT22;2470;49.868;8.660;2023-06-04T09:18:31;22.10;40.60
4910;DHT22;2470;49.868;8.660;2023-06-04T09:21:05;22.30;40.70
4910;DHT22;2470;49.868;8.660;2023-06-04T09:23:49;22.40;40.80
4910;DHT22;2470;49.868;8.660;2023-06-04T09:26:15;22.60;40.00
4910;DHT22;2470;49.868;8.660;2023-06-04T09:28:45;22.60;40.30
4910;DHT22;2470;49.868;8.660;2023-06-04T09:31:15;22.60;40.60
4910;DHT22;2470;49.868;8.660;2023-06-04T09:33:45;22.70;40.40
4910;DHT22;2470;49.868;8.660;2023-06-04T09:36:11;22.80;40.20
4910;DHT22;2470;49.868;8.660;2023-06-04T09:38:38;22.80;39.90
4910;DHT22;2470;49.868;8.660;2023-06-04T09:41:03;22.80;39.40
4910;DHT22;2470;49.868;8.660;2023-06-04T09:43:32;22.90;38.30
4910;DHT22;2470;49.868;8.660;2023-06-04T09:46:15;23.00;38.20
4910;DHT22;2470;49.868;8.660;2023-06-04T09:48:41;23.00;38.60
4910;DHT22;2470;49.868;8.660;2023-06-04T09:51:14;23.20;38.60
4910;DHT22;2470;49.868;8.660;2023-06-04T09:53:41;23.10;38.00
4910;DHT22;2470;49.868;8.660;2023-06-04T09:56:07;23.00;37.50
4910;DHT22;2470;49.868;8.660;2023-06-04T09:58:34;22.90;37.70
4910;DHT22;2470;49.868;8.660;2023-06-04T10:01:02;22.70;38.10
4910;DHT22;2470;49.868;8.660;2023-06-04T10:03:35;22.70;38.70
4910;DHT22;2470;49.868;8.660;2023-06-04T10:06:05;22.70;38.60
4910;DHT22;2470;49.868;8.660;2023-06-04T10:08:32;22.70;38.10
4910;DHT22;2470;49.868;8.660;2023-06-04T10:11:00;22.70;37.30
4910;DHT22;2470;49.868;8.660;2023-06-04T10:13:29;22.80;37.50
4910;DHT22;2470;49.868;8.660;2023-06-04T10:15:57;22.80;38.10
4910;DHT22;2470;49.868;8.660;2023-06-04T10:18:33;22.80;38.10
4910;DHT22;2470;49.868;8.660;2023-06-04T10:20:59;22.90;38.10
4910;DHT22;2470;49.868;8.660;2023-06-04T10:23:25;23.00;36.80
4910;DHT22;2470;49.868;8.660;2023-06-04T10:25:52;23.10;36.60
4910;DHT22;2470;49.868;8.660;2023-06-04T10:28:20;23.20;36.80
4910;DHT22;2470;49.868;8.660;2023-06-04T10:30:46;23.30;36.80
4910;DHT22;2470;49.868;8.660;2023-06-04T10:33:13;23.40;36.20
4910;DHT22;2470;49.868;8.660;2023-06-04T10:35:39;23.40;35.00
4910;DHT22;2470;49.868;8.660;2023-06-04T10:38:09;23.50;34.20
4910;DHT22;2470;49.868;8.660;2023-06-04T10:40:36;23.60;35.40
4910;DHT22;2470;49.868;8.660;2023-06-04T10:43:09;23.60;35.40
4910;DHT22;2470;49.868;8.660;2023-06-04T10:45:35;23.70;35.60
4910;DHT22;2470;49.868;8.660;2023-06-04T10:48:02;23.90;35.00
4910;DHT22;2470;49.868;8.660;2023-06-04T10:50:28;23.90;35.70
4910;DHT22;2470;49.868;8.660;2023-06-04T10:52:55;24.00;34.70
4910;DHT22;2470;49.868;8.660;2023-06-04T10:55:21;24.10;34.80
4910;DHT22;2470;49.868;8.660;2023-06-04T10:57:54;24.00;36.20
4910;DHT22;2470;49.868;8.660;2023-06-04T11:00:20;24.00;36.10
4910;DHT22;2470;49.868;8.660;2023-06-04T11:02:54;23.90;36.00
4910;DHT22;2470;49.868;8.660;2023-06-04T11:05:19;23.90;35.70
4910;DHT22;2470;49.868;8.660;2023-06-04T11:07:48;24.00;35.00
4910;DHT22;2470;49.868;8.660;2023-06-04T11:10:15;24.00;34.70
4910;DHT22;2470;49.868;8.660;2023-06-04T11:12:45;24.10;35.40
4910;DHT22;2470;49.868;8.660;2023-06-04T11:15:12;24.20;35.20
4910;DHT22;2470;49.868;8.660;2023-06-04T11:17:37;24.30;35.20
4910;DHT22;2470;49.868;8.660;2023-06-04T11:20:03;24.40;33.90
4910;DHT22;2470;49.868;8.660;2023-06-04T11:22:32;24.40;34.50
4910;DHT22;2470;49.868;8.660;2023-06-04T11:24:58;24.50;35.40
4910;DHT22;2470;49.868;8.660;2023-06-04T11:27:27;24.60;34.70
4910;DHT22;2470;49.868;8.660;2023-06-04T11:29:53;24.60;34.50
4910;DHT22;2470;49.868;8.660;2023-06-04T11:32:22;24.70;34.50
4910;DHT22;2470;49.868;8.660;2023-06-04T11:34:48;24.70;33.90
4910;DHT22;2470;49.868;8.660;2023-06-04T11:37:14;24.80;33.50
4910;DHT22;2470;49.868;8.660;2023-06-04T11:39:39;24.80;33.50
4910;DHT22;2470;49.868;8.660;2023-06-04T11:42:06;24.90;33.80
4910;DHT22;2470;49.868;8.660;2023-06-04T11:44:32;24.90;34.00
4910;DHT22;2470;49.868;8.660;2023-06-04T11:46:58;25.10;33.70
4910;DHT22;2470;49.868;8.660;2023-06-04T11:49:24;25.10;32.70
4910;DHT22;2470;49.868;8.660;2023-06-04T11:51:52;25.30;32.80
4910;DHT22;2470;49.868;8.660;2023-06-04T11:54:19;25.40;33.40
4910;DHT22;2470;49.868;8.660;2023-06-04T11:56:48;25.40;32.20
4910;DHT22;2470;49.868;8.660;2023-06-04T11:59:15;25.50;32.30
4910;DHT22;2470;49.868;8.660;2023-06-04T12:01:45;25.50;32.40
4910;DHT22;2470;49.868;8.660;2023-06-04T12:04:15;25.50;33.20
4910;DHT22;2470;49.868;8.660;2023-06-04T12:06:55;25.50;31.90
4910;DHT22;2470;49.868;8.660;2023-06-04T12:09:30;25.50;32.00
4910;DHT22;2470;49.868;8.660;2023-06-04T12:12:02;25.50;32.20
4910;DHT22;2470;49.868;8.660;2023-06-04T12:14:28;25.60;33.10
4910;DHT22;2470;49.868;8.660;2023-06-04T12:17:02;25.60;31.60
4910;DHT22;2470;49.868;8.660;2023-06-04T12:19:28;25.70;31.10
4910;DHT22;2470;49.868;8.660;2023-06-04T12:22:04;25.90;31.80
4910;DHT22;2470;49.868;8.660;2023-06-04T12:24:31;26.00;31.40
4910;DHT22;2470;49.868;8.660;2023-06-04T12:27:07;26.20;31.60
4910;DHT22;2470;49.868;8.660;2023-06-04T12:29:37;26.30;31.20
4910;DHT22;2470;49.868;8.660;2023-06-04T12:32:07;26.50;31.30
4910;DHT22;2470;49.868;8.660;2023-06-04T12:34:40;26.60;31.20
4910;DHT22;2470;49.868;8.660;2023-06-04T12:37:06;26.70;31.20
4910;DHT22;2470;49.868;8.660;2023-06-04T12:39:36;26.80;30.50
4910;DHT22;2470;49.868;8.660;2023-06-04T12:42:08;26.90;30.30
4910;DHT22;2470;49.868;8.660;2023-06-04T12:44:35;27.00;30.20
4910;DHT22;2470;49.868;8.660;2023-06-04T12:47:01;27.20;31.60
4910;DHT22;2470;49.868;8.660;2023-06-04T12:49:27;27.50;30.30
4910;DHT22;2470;49.868;8.660;2023-06-04T12:51:52;28.20;28.80
4910;DHT22;2470;49.868;8.660;2023-06-04T12:54:18;28.70;28.60
4910;DHT22;2470;49.868;8.660;2023-06-04T12:56:44;29.40;28.10
4910;DHT22;2470;49.868;8.660;2023-06-04T12:59:10;30.60;28.30
4910;DHT22;2470;49.868;8.660;2023-06-04T13:01:35;32.20;26.80
4910;DHT22;2470;49.868;8.660;2023-06-04T13:04:03;33.60;26.10
4910;DHT22;2470;49.868;8.660;2023-06-04T13:06:28;35.10;25.40
4910;DHT22;2470;49.868;8.660;2023-06-04T13:08:54;36.60;24.80
4910;DHT22;2470;49.868;8.660;2023-06-04T13:11:20;37.80;24.50
4910;DHT22;2470;49.868;8.660;2023-06-04T13:13:47;38.60;23.80
4910;DHT22;2470;49.868;8.660;2023-06-04T13:16:12;38.60;22.90
4910;DHT22;2470;49.868;8.660;2023-06-04T13:18:38;38.10;22.20
4910;DHT22;2470;49.868;8.660;2023-06-04T13:21:03;37.90;23.00
4910;DHT22;2470;49.868;8.660;2023-06-04T13:23:29;37.90;22.90
4910;DHT22;2470;49.868;8.660;2023-06-04T13:25:54;38.20;23.80
4910;DHT22;2470;49.868;8.660;2023-06-04T13:28:20;38.30;22.50
4910;DHT22;2470;49.868;8.660;2023-06-04T13:30:46;38.30;22.10
4910;DHT22;2470;49.868;8.660;2023-06-04T13:33:12;37.90;21.60
4910;DHT22;2470;49.868;8.660;2023-06-04T13:35:37;37.30;21.70
4910;DHT22;2470;49.868;8.660;2023-06-04T13:38:04;36.70;21.80
4910;DHT22;2470;49.868;8.660;2023-06-04T13:40:31;35.80;22.20
4910;DHT22;2470;49.868;8.660;2023-06-04T13:42:56;34.80;23.10
4910;DHT22;2470;49.868;8.660;2023-06-04T13:45:22;33.70;23.70
4910;DHT22;2470;49.868;8.660;2023-06-04T13:47:48;33.00;24.00
4910;DHT22;2470;49.868;8.660;2023-06-04T13:50:14;32.20;24.50
4910;DHT22;2470;49.868;8.660;2023-06-04T13:52:40;31.50;25.00
4910;DHT22;2470;49.868;8.660;2023-06-04T13:55:06;30.90;25.30
4910;DHT22;2470;49.868;8.660;2023-06-04T13:57:31;30.40;25.60
4910;DHT22;2470;49.868;8.660;2023-06-04T13:59:57;30.00;26.00
4910;DHT22;2470;49.868;8.660;2023-06-04T14:02:22;29.80;26.60
4910;DHT22;2470;49.868;8.660;2023-06-04T14:04:50;30.00;26.60
4910;DHT22;2470;49.868;8.660;2023-06-04T14:07:16;30.20;26.40
4910;DHT22;2470;49.868;8.660;2023-06-04T14:09:42;30.20;26.50
4910;DHT22;2470;49.868;8.660;2023-06-04T14:12:08;30.10;26.30
4910;DHT22;2470;49.868;8.660;2023-06-04T14:14:34;30.20;26.40
4910;DHT22;2470;49.868;8.660;2023-06-04T14:17:03;30.30;26.80
4910;DHT22;2470;49.868;8.660;2023-06-04T14:19:28;30.10;26.50
4910;DHT22;2470;49.868;8.660;2023-06-04T14:21:54;29.80;26.20
4910;DHT22;2470;49.868;8.660;2023-06-04T14:24:20;29.80;26.80
4910;DHT22;2470;49.868;8.660;2023-06-04T14:26:46;29.80;26.40
4910;DHT22;2470;49.868;8.660;2023-06-04T14:29:11;30.20;26.20
4910;DHT22;2470;49.868;8.660;2023-06-04T14:31:37;30.20;26.20
4910;DHT22;2470;49.868;8.660;2023-06-04T14:34:03;30.00;26.70
4910;DHT22;2470;49.868;8.660;2023-06-04T14:36:29;30.10;27.00
4910;DHT22;2470;49.868;8.660;2023-06-04T14:38:54;29.90;27.10
4910;DHT22;2470;49.868;8.660;2023-06-04T14:41:20;29.50;26.90
4910;DHT22;2470;49.868;8.660;2023-06-04T14:43:45;28.90;27.40
4910;DHT22;2470;49.868;8.660;2023-06-04T14:46:10;28.40;27.80
4910;DHT22;2470;49.868;8.660;2023-06-04T14:48:36;28.00;28.00
4910;DHT22;2470;49.868;8.660;2023-06-04T14:51:02;27.70;28.20
4910;DHT22;2470;49.868;8.660;2023-06-04T14:53:27;27.40;28.40
4910;DHT22;2470;49.868;8.660;2023-06-04T14:55:53;27.20;28.10
4910;DHT22;2470;49.868;8.660;2023-06-04T14:58:18;27.10;28.50
4910;DHT22;2470;49.868;8.660;2023-06-04T15:00:44;26.90;29.10
4910;DHT22;2470;49.868;8.660;2023-06-04T15:03:10;26.80;29.20
4910;DHT22;2470;49.868;8.660;2023-06-04T15:05:36;26.80;29.20
4910;DHT22;2470;49.868;8.660;2023-06-04T15:08:02;26.90;29.40
4910;DHT22;2470;49.868;8.660;2023-06-04T15:10:28;27.00;29.60
4910;DHT22;2470;49.868;8.660;2023-06-04T15:12:54;27.30;29.50
4910;DHT22;2470;49.868;8.660;2023-06-04T15:15:20;28.40;28.90
4910;DHT22;2470;49.868;8.660;2023-06-04T15:17:45;29.90;28.20
4910;DHT22;2470;49.868;8.660;2023-06-04T15:20:11;30.80;27.30
4910;DHT22;2470;49.868;8.660;2023-06-04T15:22:36;31.40;26.80
4910;DHT22;2470;49.868;8.660;2023-06-04T15:25:02;32.10;26.50
4910;DHT22;2470;49.868;8.660;2023-06-04T15:27:28;33.00;25.70
4910;DHT22;2470;49.868;8.660;2023-06-04T15:29:53;34.00;25.00
4910;DHT22;2470;49.868;8.660;2023-06-04T15:32:19;35.10;24.20
4910;DHT22;2470;49.868;8.660;2023-06-04T15:34:45;35.40;23.80
4910;DHT22;2470;49.868;8.660;2023-06-04T15:37:10;34.70;23.80
4910;DHT22;2470;49.868;8.660;2023-06-04T15:39:36;33.40;23.90
4910;DHT22;2470;49.868;8.660;2023-06-04T15:42:01;32.20;24.60
4910;DHT22;2470;49.868;8.660;2023-06-04T15:44:27;31.20;24.50
4910;DHT22;2470;49.868;8.660;2023-06-04T15:46:53;30.30;25.50
4910;DHT22;2470;49.868;8.660;2023-06-04T15:49:19;29.60;26.60
4910;DHT22;2470;49.868;8.660;2023-06-04T15:51:44;28.90;26.50
4910;DHT22;2470;49.868;8.660;2023-06-04T15:54:10;28.30;27.40
4910;DHT22;2470;49.868;8.660;2023-06-04T15:56:35;27.90;27.40
4910;DHT22;2470;49.868;8.660;2023-06-04T15:59:02;27.50;28.10
4910;DHT22;2470;49.868;8.660;2023-06-04T16:01:31;27.20;28.00
4910;DHT22;2470;49.868;8.660;2023-06-04T16:03:57;27.00;28.50